createdAt,value
2017-08-29T00:00:43.215Z,98760.25
2017-08-29T00:03:09.649Z,98758.97
2017-08-29T00:05:36.084Z,98765.30
2017-08-29T00:08:03.332Z,98764.53
2017-08-29T00:10:29.771Z,98766.30
2017-08-29T00:12:56.164Z,98764.45
2017-08-29T00:15:22.639Z,98735.05
2017-08-29T00:17:49.078Z,98770.30
2017-08-29T00:20:15.442Z,98781.97
2017-08-29T00:22:41.969Z,98776.91
2017-08-29T00:25:09.055Z,98765.73
2017-08-29T00:27:35.537Z,98773.97
2017-08-29T00:30:01.970Z,98777.28
2017-08-29T00:32:28.406Z,98779.02
2017-08-29T00:34:54.946Z,98758.03
2017-08-29T00:37:21.398Z,98787.73
2017-08-29T00:39:47.811Z,98784.25
2017-08-29T00:42:15.066Z,98779.17
2017-08-29T00:44:41.500Z,98778.00
2017-08-29T00:47:07.936Z,98779.02
2017-08-29T00:49:34.332Z,98775.42
2017-08-29T00:52:00.800Z,98782.79
2017-08-29T00:54:27.237Z,98794.23
2017-08-29T00:56:53.675Z,98783.38
2017-08-29T00:59:20.933Z,98764.85
2017-08-29T01:01:47.364Z,98790.89
2017-08-29T01:04:13.802Z,98791.48
2017-08-29T01:06:40.216Z,98792.05
2017-08-29T01:09:06.668Z,98798.92
2017-08-29T01:11:33.064Z,98796.02
2017-08-29T01:13:59.541Z,98795.61
2017-08-29T01:16:26.690Z,98795.95
2017-08-29T01:18:53.078Z,98798.80
2017-08-29T01:21:19.512Z,98792.52
2017-08-29T01:23:45.995Z,98789.57
2017-08-29T01:26:12.532Z,98782.41
2017-08-29T01:28:38.911Z,98780.38
2017-08-29T01:31:05.402Z,98788.55
2017-08-29T01:33:32.550Z,98788.34
2017-08-29T01:35:58.988Z,98794.59
2017-08-29T01:38:25.420Z,98801.20
2017-08-29T01:40:51.862Z,98800.19
2017-08-29T01:43:18.295Z,98805.71
2017-08-29T01:45:44.728Z,98807.13
2017-08-29T01:48:11.165Z,98811.08
2017-08-29T01:50:38.315Z,98804.98
2017-08-29T01:53:04.852Z,98810.69
2017-08-29T01:55:31.287Z,98813.74
2017-08-29T01:57:57.722Z,98807.18
2017-08-29T02:00:24.157Z,98807.73
2017-08-29T02:02:50.599Z,98814.64
2017-08-29T02:05:17.027Z,98817.95
2017-08-29T02:07:44.178Z,98822.87
2017-08-29T02:10:10.614Z,98823.09
2017-08-29T02:12:37.052Z,98820.19
2017-08-29T02:15:03.485Z,98821.70
2017-08-29T02:17:29.919Z,98818.66
2017-08-29T02:19:56.357Z,98821.77
2017-08-29T02:22:22.790Z,98827.65
2017-08-29T02:24:50.042Z,98829.38
2017-08-29T02:27:16.477Z,98823.27
2017-08-29T02:29:42.911Z,98822.34
2017-08-29T02:32:09.347Z,98816.06
2017-08-29T02:34:35.783Z,98820.28
2017-08-29T02:37:02.216Z,98821.80
2017-08-29T02:39:28.654Z,98822.37
2017-08-29T02:41:55.804Z,98820.69
2017-08-29T02:44:22.202Z,98831.33
2017-08-29T02:46:48.571Z,98836.58
2017-08-29T02:49:15.005Z,98834.05
2017-08-29T02:51:41.419Z,98830.09
2017-08-29T02:54:07.864Z,98826.29
2017-08-29T02:56:34.306Z,98827.80
2017-08-29T02:59:01.568Z,98832.45
2017-08-29T03:01:27.999Z,98844.89
2017-08-29T03:03:54.398Z,98847.48
2017-08-29T03:06:20.765Z,98854.09
2017-08-29T03:08:47.202Z,98860.44
2017-08-29T03:11:13.637Z,98864.30
2017-08-29T03:13:40.072Z,98857.84
2017-08-29T03:16:07.326Z,98846.66
2017-08-29T03:18:33.758Z,98860.94
2017-08-29T03:21:00.215Z,98853.59
2017-08-29T03:23:26.631Z,98859.63
2017-08-29T03:25:53.088Z,98855.81
2017-08-29T03:28:19.588Z,98862.11
2017-08-29T03:30:46.031Z,98851.02
2017-08-29T03:33:13.191Z,98862.78
2017-08-29T03:35:39.726Z,98856.75
2017-08-29T03:38:06.264Z,98848.94
2017-08-29T03:40:32.702Z,98847.78
2017-08-29T03:42:59.088Z,98849.09
2017-08-29T03:45:25.528Z,98853.83
2017-08-29T03:47:52.004Z,98853.06
2017-08-29T03:50:19.141Z,98829.87
2017-08-29T03:52:45.589Z,98863.33
2017-08-29T03:55:12.005Z,98871.69
2017-08-29T03:57:38.463Z,98870.25
2017-08-29T04:00:04.919Z,98870.22
2017-08-29T04:02:31.332Z,98880.96
2017-08-29T04:04:57.768Z,98887.13
2017-08-29T04:10:21.702Z,98894.50
2017-08-29T04:12:48.179Z,98895.16
2017-08-29T04:15:14.634Z,98899.12
2017-08-29T04:17:41.039Z,98904.67
2017-08-29T04:20:07.525Z,98914.41
2017-08-29T04:22:33.940Z,98908.16
2017-08-29T04:25:00.373Z,98910.84
2017-08-29T04:27:26.807Z,98909.61
2017-08-29T04:29:53.242Z,98915.02
2017-08-29T04:32:19.679Z,98911.68
2017-08-29T04:34:46.113Z,98919.91
2017-08-29T04:37:12.548Z,98927.65
2017-08-29T04:39:38.982Z,98922.02
2017-08-29T04:42:05.418Z,98927.14
2017-08-29T04:44:31.855Z,98932.73
2017-08-29T04:46:58.290Z,98929.97
2017-08-29T04:49:24.742Z,98943.56
2017-08-29T04:51:51.107Z,98943.17
2017-08-29T04:54:17.489Z,98957.80
2017-08-29T04:56:43.924Z,98963.30
2017-08-29T04:59:10.359Z,98960.28
2017-08-29T05:01:36.798Z,98964.66
2017-08-29T05:04:03.231Z,98957.87
2017-08-29T05:06:29.667Z,98962.01
2017-08-29T05:08:56.102Z,98952.92
2017-08-29T05:11:22.535Z,98954.23
2017-08-29T05:13:48.971Z,98963.64
2017-08-29T05:16:15.405Z,98965.70
2017-08-29T05:18:41.840Z,98972.68
2017-08-29T05:21:08.274Z,98952.88
2017-08-29T05:23:34.708Z,98969.51
2017-08-29T05:26:01.096Z,98971.37
2017-08-29T05:28:27.531Z,98971.72
2017-08-29T05:30:53.998Z,98978.85
2017-08-29T05:33:20.551Z,98979.50
2017-08-29T05:35:46.915Z,98978.15
2017-08-29T05:38:13.318Z,98968.09
2017-08-29T05:40:40.571Z,98972.17
2017-08-29T05:43:07.014Z,98977.45
2017-08-29T05:45:33.648Z,98984.88
2017-08-29T05:48:00.084Z,98993.72
2017-08-29T05:50:26.622Z,98993.84
2017-08-29T05:52:53.566Z,98995.08
2017-08-29T05:55:20.001Z,99006.45
2017-08-29T05:57:46.713Z,99018.83
2017-08-29T06:00:13.486Z,99021.94
2017-08-29T06:02:39.920Z,99023.17
2017-08-29T06:05:06.459Z,99032.27
2017-08-29T06:07:33.199Z,99029.02
2017-08-29T06:09:59.636Z,99032.23
2017-08-29T06:12:26.174Z,99027.25
2017-08-29T06:14:52.812Z,99039.55
2017-08-29T06:17:19.247Z,99042.69
2017-08-29T06:19:45.684Z,99041.37
2017-08-29T06:24:44.761Z,99047.02
2017-08-29T06:27:11.234Z,99028.72
2017-08-29T06:29:38.079Z,99058.42
2017-08-29T06:32:04.512Z,99047.50
2017-08-29T06:34:30.966Z,99066.38
2017-08-29T06:36:57.690Z,99063.83
2017-08-29T06:39:24.123Z,99081.45
2017-08-29T06:41:50.561Z,99090.72
2017-08-29T06:44:17.399Z,99095.50
2017-08-29T06:46:43.837Z,99093.63
2017-08-29T06:49:10.270Z,99100.27
2017-08-29T06:51:37.016Z,99100.92
2017-08-29T06:54:03.450Z,99086.20
2017-08-29T06:56:30.009Z,99105.93
2017-08-29T06:58:56.525Z,99103.13
2017-08-29T07:01:23.080Z,99102.37
2017-08-29T07:03:49.496Z,99106.47
2017-08-29T07:06:15.935Z,99100.50
2017-08-29T07:08:42.673Z,99083.89
2017-08-29T07:11:09.069Z,99088.23
2017-08-29T07:13:35.546Z,99077.28
2017-08-29T07:16:02.081Z,99070.30
2017-08-29T07:18:29.031Z,99063.63
2017-08-29T07:20:55.463Z,99070.78
2017-08-29T07:23:22.002Z,99070.48
2017-08-29T07:25:48.435Z,99075.28
2017-08-29T07:28:14.835Z,99079.26
2017-08-29T07:30:41.407Z,99079.19
2017-08-29T07:33:07.845Z,99064.63
2017-08-29T07:35:34.726Z,99095.52
2017-08-29T07:38:01.276Z,99092.49
2017-08-29T07:40:27.804Z,99091.75
2017-08-29T07:42:54.710Z,99084.55
2017-08-29T07:45:21.339Z,99079.35
2017-08-29T07:47:47.802Z,99082.37
2017-08-29T07:50:14.734Z,99077.91
2017-08-29T07:52:41.266Z,99075.86
2017-08-29T07:55:07.803Z,99076.13
2017-08-29T07:57:35.701Z,99091.76
2017-08-29T08:00:02.313Z,99089.48
2017-08-29T08:02:29.669Z,99092.68
2017-08-29T08:04:57.640Z,99093.84
2017-08-29T08:07:24.271Z,99104.64
2017-08-29T08:09:50.713Z,99098.53
2017-08-29T08:12:17.251Z,99087.64
2017-08-29T08:14:43.687Z,99110.80
2017-08-29T08:17:10.225Z,99114.02
2017-08-29T08:19:36.863Z,99120.48
2017-08-29T08:22:03.259Z,99115.43
2017-08-29T08:24:29.688Z,99116.42
2017-08-29T08:26:56.524Z,99114.00
2017-08-29T08:29:22.956Z,99113.02
2017-08-29T08:31:49.404Z,99119.64
2017-08-29T08:34:16.087Z,99122.22
2017-08-29T08:36:42.632Z,99127.94
2017-08-29T08:39:09.014Z,99129.48
2017-08-29T08:41:35.596Z,99127.80
2017-08-29T08:44:02.135Z,99128.78
2017-08-29T08:46:28.672Z,99130.34
2017-08-29T08:48:55.720Z,99123.94
2017-08-29T08:51:22.109Z,99121.11
2017-08-29T08:53:48.583Z,99128.80
2017-08-29T08:56:15.435Z,99109.52
2017-08-29T08:58:41.839Z,99123.59
2017-08-29T09:01:08.309Z,99125.58
2017-08-29T09:03:35.559Z,99123.95
2017-08-29T09:06:02.097Z,99115.78
2017-08-29T09:08:28.633Z,99118.17
2017-08-29T09:10:55.477Z,99129.23
2017-08-29T09:13:21.931Z,99122.49
2017-08-29T09:15:48.456Z,99114.05
2017-08-29T09:18:15.501Z,99118.59
2017-08-29T09:20:42.244Z,99119.82
2017-08-29T09:23:08.677Z,99117.16
2017-08-29T09:25:35.522Z,99119.73
2017-08-29T09:28:02.558Z,99124.72
2017-08-29T09:30:29.005Z,99121.52
2017-08-29T09:32:56.190Z,99124.62
2017-08-29T09:35:23.002Z,99122.39
2017-08-29T09:37:49.546Z,99097.94
2017-08-29T09:40:17.575Z,99117.78
2017-08-29T09:42:44.437Z,99109.89
2017-08-29T09:45:11.079Z,99114.14
2017-08-29T09:47:37.830Z,99107.30
2017-08-29T09:50:04.484Z,99112.66
2017-08-29T09:52:31.325Z,99110.86
2017-08-29T09:54:58.065Z,99107.14
2017-08-29T09:57:24.858Z,99120.08
2017-08-29T09:59:51.652Z,99118.05
2017-08-29T10:02:18.434Z,99112.09
2017-08-29T10:04:45.314Z,99117.00
2017-08-29T10:07:14.039Z,99121.72
2017-08-29T10:09:41.698Z,99119.35
2017-08-29T10:12:08.229Z,99119.78
2017-08-29T10:14:36.291Z,99128.56
2017-08-29T10:17:03.211Z,99135.64
2017-08-29T10:19:29.890Z,99146.13
2017-08-29T10:21:56.796Z,99142.09
2017-08-29T10:24:23.963Z,99127.41
2017-08-29T10:26:50.612Z,99152.02
2017-08-29T10:29:17.984Z,99152.80
2017-08-29T10:31:44.648Z,99151.17
2017-08-29T10:34:11.365Z,99153.31
2017-08-29T10:36:38.418Z,99150.52
2017-08-29T10:39:05.361Z,99149.28
2017-08-29T10:41:31.793Z,99138.47
2017-08-29T10:43:58.234Z,99158.06
2017-08-29T10:46:25.054Z,99153.97
2017-08-29T10:48:51.513Z,99158.70
2017-08-29T10:51:18.253Z,99159.22
2017-08-29T10:53:45.459Z,99148.53
2017-08-29T10:56:12.151Z,99151.67
2017-08-29T10:58:38.663Z,99148.20
2017-08-29T11:01:05.482Z,99149.22
2017-08-29T11:03:31.921Z,99145.95
2017-08-29T11:05:58.410Z,99153.75
2017-08-29T11:08:25.145Z,99144.33
2017-08-29T11:10:51.558Z,99158.48
2017-08-29T11:13:17.924Z,99151.96
2017-08-29T11:15:44.448Z,99146.08
2017-08-29T11:18:10.995Z,99139.34
2017-08-29T11:20:38.034Z,99128.38
2017-08-29T11:23:05.862Z,99127.67
2017-08-29T11:25:32.531Z,99132.48
2017-08-29T11:27:59.234Z,99119.57
2017-08-29T11:30:26.747Z,99124.00
2017-08-29T11:32:53.793Z,99110.70
2017-08-29T11:35:20.437Z,99117.77
2017-08-29T11:37:47.581Z,99120.13
2017-08-29T11:40:14.284Z,99123.66
2017-08-29T11:42:40.764Z,99127.62
2017-08-29T11:45:08.527Z,99132.67
2017-08-29T11:47:35.173Z,99130.95
2017-08-29T11:50:02.226Z,99135.28
2017-08-29T11:52:28.987Z,99139.59
2017-08-29T11:54:55.593Z,99136.19
2017-08-29T11:57:22.133Z,99138.22
2017-08-29T11:59:48.977Z,99131.93
2017-08-29T12:02:15.412Z,99133.21
2017-08-29T12:04:41.849Z,99138.45
2017-08-29T12:07:08.590Z,99136.25
2017-08-29T12:09:35.128Z,99136.19
2017-08-29T12:12:01.871Z,99131.07
2017-08-29T12:14:28.610Z,99133.30
2017-08-29T12:16:55.099Z,99125.13
2017-08-29T12:19:21.536Z,99129.27
2017-08-29T12:21:48.843Z,99132.13
2017-08-29T12:24:15.497Z,99128.36
2017-08-29T12:26:42.015Z,99129.48
2017-08-29T12:29:08.681Z,99133.02
2017-08-29T12:31:35.184Z,99132.95
2017-08-29T12:34:01.581Z,99129.94
2017-08-29T12:36:28.268Z,99136.84
2017-08-29T12:38:54.804Z,99138.22
2017-08-29T12:41:21.340Z,99137.90
2017-08-29T12:43:48.297Z,99135.02
2017-08-29T12:46:15.035Z,99122.67
2017-08-29T12:48:41.578Z,99113.69
2017-08-29T12:51:08.615Z,99132.58
2017-08-29T12:53:35.464Z,99130.80
2017-08-29T12:56:02.092Z,99134.92
2017-08-29T12:58:29.354Z,99140.51
2017-08-29T13:00:55.789Z,99139.84
2017-08-29T13:03:22.316Z,99142.13
2017-08-29T13:05:49.225Z,99139.23
2017-08-29T13:08:15.606Z,99136.20
2017-08-29T13:10:42.014Z,99143.34
2017-08-29T13:13:08.781Z,99139.93
2017-08-29T13:15:35.322Z,99142.33
2017-08-29T13:18:01.960Z,99135.83
2017-08-29T13:20:28.909Z,99138.88
2017-08-29T13:22:55.752Z,99140.97
2017-08-29T13:25:22.289Z,99141.58
2017-08-29T13:27:49.031Z,99139.63
2017-08-29T13:30:15.466Z,99111.75
2017-08-29T13:32:41.901Z,99140.34
2017-08-29T13:35:08.440Z,99142.78
2017-08-29T13:37:35.245Z,99127.27
2017-08-29T13:40:01.720Z,99142.58
2017-08-29T13:42:28.152Z,99119.06
2017-08-29T13:44:54.844Z,99133.77
2017-08-29T13:47:21.432Z,99137.84
2017-08-29T13:49:47.871Z,99141.28
2017-08-29T13:52:15.419Z,99139.63
2017-08-29T13:54:44.937Z,99143.30
2017-08-29T13:57:11.985Z,99151.14
2017-08-29T13:59:38.728Z,99150.62
2017-08-29T14:02:05.880Z,99152.20
2017-08-29T14:04:32.508Z,99158.17
2017-08-29T14:06:59.158Z,99156.40
2017-08-29T14:09:26.002Z,99155.75
2017-08-29T14:11:52.494Z,99140.45
2017-08-29T14:14:19.694Z,99154.34
2017-08-29T14:16:46.458Z,99160.03
2017-08-29T14:19:12.868Z,99155.09
2017-08-29T14:21:40.147Z,99160.28
2017-08-29T14:24:06.865Z,99160.90
2017-08-29T14:26:33.506Z,99161.61
2017-08-29T14:29:00.144Z,99158.42
2017-08-29T14:31:26.904Z,99125.67
2017-08-29T14:33:53.423Z,99159.41
2017-08-29T14:36:20.064Z,99174.19
2017-08-29T14:38:46.801Z,99165.73
2017-08-29T14:41:13.307Z,99166.07
2017-08-29T14:43:39.982Z,99165.13
2017-08-29T14:46:06.829Z,99164.20
2017-08-29T14:48:34.493Z,99161.47
2017-08-29T14:51:02.729Z,99160.45
2017-08-29T14:53:29.156Z,99172.08
2017-08-29T14:55:55.589Z,99168.88
2017-08-29T14:58:22.278Z,99168.44
2017-08-29T15:00:48.714Z,99170.05
2017-08-29T15:03:15.148Z,99168.53
2017-08-29T15:05:42.065Z,99166.68
2017-08-29T15:08:08.519Z,99165.52
2017-08-29T15:10:34.962Z,99168.81
2017-08-29T15:13:03.181Z,99168.06
2017-08-29T15:15:30.097Z,99167.15
2017-08-29T15:17:57.093Z,99175.88
2017-08-29T15:20:23.860Z,99183.09
2017-08-29T15:22:50.416Z,99179.92
2017-08-29T15:25:16.872Z,99173.85
2017-08-29T15:27:43.797Z,99182.32
2017-08-29T15:30:10.232Z,99175.58
2017-08-29T15:32:36.668Z,99173.23
2017-08-29T15:35:03.443Z,99152.45
2017-08-29T15:37:29.947Z,99184.94
2017-08-29T15:39:56.379Z,99179.92
2017-08-29T15:42:22.814Z,99177.44
2017-08-29T15:44:49.460Z,99184.34
2017-08-29T15:47:15.995Z,99185.55
2017-08-29T15:49:42.531Z,99190.88
2017-08-29T15:52:08.966Z,99193.22
2017-08-29T15:54:35.401Z,99197.70
2017-08-29T15:57:01.825Z,99189.62
2017-08-29T15:59:28.375Z,99188.50
2017-08-29T16:01:54.809Z,99190.45
2017-08-29T16:04:21.242Z,99199.94
2017-08-29T16:06:47.677Z,99209.82
2017-08-29T16:09:14.113Z,99208.60
2017-08-29T16:11:40.547Z,99209.06
2017-08-29T16:14:06.984Z,99208.06
2017-08-29T16:16:33.439Z,99210.42
2017-08-29T16:18:59.853Z,99213.45
2017-08-29T16:21:26.219Z,99214.88
2017-08-29T16:23:52.620Z,99216.37
2017-08-29T16:26:19.055Z,99214.36
2017-08-29T16:28:45.488Z,99212.98
2017-08-29T16:31:11.924Z,99217.43
2017-08-29T16:33:38.311Z,99224.12
2017-08-29T16:36:04.792Z,99225.95
2017-08-29T16:38:31.228Z,99224.08
2017-08-29T16:40:57.664Z,99219.91
2017-08-29T16:43:24.098Z,99222.98
2017-08-29T16:45:50.533Z,99224.99
2017-08-29T16:48:16.972Z,99227.98
2017-08-29T16:50:43.404Z,99228.00
2017-08-29T16:53:10.555Z,99230.41
2017-08-29T16:55:36.990Z,99231.27
2017-08-29T16:58:03.424Z,99235.78
2017-08-29T17:00:29.862Z,99202.93
2017-08-29T17:02:56.295Z,99238.63
2017-08-29T17:05:22.783Z,99236.02
2017-08-29T17:07:49.169Z,99243.22
2017-08-29T17:10:16.382Z,99240.16
2017-08-29T17:12:42.853Z,99238.14
2017-08-29T17:15:09.288Z,99237.08
2017-08-29T17:17:35.723Z,99239.12
2017-08-29T17:20:02.159Z,99238.27
2017-08-29T17:22:28.594Z,99238.98
2017-08-29T17:24:55.112Z,99231.64
2017-08-29T17:27:22.232Z,99239.85
2017-08-29T17:29:48.718Z,99249.09
2017-08-29T17:32:15.152Z,99254.22
2017-08-29T17:34:41.583Z,99253.92
2017-08-29T17:37:08.021Z,99253.41
2017-08-29T17:39:34.559Z,99257.80
2017-08-29T17:42:00.993Z,99267.63
2017-08-29T17:44:28.145Z,99266.04
2017-08-29T17:46:54.500Z,99269.40
2017-08-29T17:49:20.864Z,99263.82
2017-08-29T17:51:47.291Z,99265.27
2017-08-29T17:54:13.769Z,99260.88
2017-08-29T17:56:40.217Z,99266.56
2017-08-29T17:59:06.609Z,99266.89
2017-08-29T18:01:33.811Z,99270.36
2017-08-29T18:04:00.239Z,99259.22
2017-08-29T18:06:26.674Z,99279.77
2017-08-29T18:08:53.111Z,99276.97
2017-08-29T18:11:19.547Z,99286.83
2017-08-29T18:13:45.979Z,99258.11
2017-08-29T18:16:12.373Z,99291.35
2017-08-29T18:18:39.564Z,99290.84
2017-08-29T18:21:06.000Z,99291.50
2017-08-29T18:23:32.542Z,99292.71
2017-08-29T18:25:58.925Z,99302.08
2017-08-29T18:28:25.357Z,99304.95
2017-08-29T18:30:51.792Z,99308.91
2017-08-29T18:33:18.276Z,99304.16
2017-08-29T18:35:45.428Z,99312.66
2017-08-29T18:38:11.864Z,99307.99
2017-08-29T18:40:38.298Z,99314.97
2017-08-29T18:43:04.733Z,99302.69
2017-08-29T18:45:31.121Z,99296.70
2017-08-29T18:47:57.604Z,99272.62
2017-08-29T18:50:24.143Z,99274.53
2017-08-29T18:52:51.187Z,99295.80
2017-08-29T18:55:17.577Z,99297.60
2017-08-29T18:57:44.059Z,99294.98
2017-08-29T19:00:10.600Z,99291.34
2017-08-29T19:02:37.031Z,99290.61
2017-08-29T19:05:03.467Z,99295.78
2017-08-29T19:07:29.902Z,99292.34
2017-08-29T19:09:57.058Z,99293.71
2017-08-29T19:12:23.489Z,99292.16
2017-08-29T19:14:49.925Z,99291.50
2017-08-29T19:17:16.423Z,99302.91
2017-08-29T19:19:42.895Z,99298.44
2017-08-29T19:22:09.332Z,99307.30
2017-08-29T19:24:35.764Z,99307.86
2017-08-29T19:27:02.971Z,99312.45
2017-08-29T19:29:29.456Z,99311.48
2017-08-29T19:31:55.917Z,99310.80
2017-08-29T19:34:22.429Z,99312.44
2017-08-29T19:36:48.864Z,99292.11
2017-08-29T19:39:15.297Z,99315.95
2017-08-29T19:41:41.730Z,99321.04
2017-08-29T19:44:08.984Z,99321.95
2017-08-29T19:46:35.383Z,99320.67
2017-08-29T19:49:01.854Z,99315.13
2017-08-29T19:51:28.291Z,99317.13
2017-08-29T19:53:54.724Z,99321.56
2017-08-29T19:56:21.113Z,99308.98
2017-08-29T19:58:47.597Z,99314.78
2017-08-29T20:01:14.746Z,99318.78
2017-08-29T20:03:41.132Z,99317.92
2017-08-29T20:06:07.602Z,99310.13
2017-08-29T20:08:34.049Z,99307.41
2017-08-29T20:11:00.486Z,99307.73
2017-08-29T20:13:26.922Z,99317.20
2017-08-29T20:15:53.356Z,99318.94
2017-08-29T20:18:20.612Z,99319.67
2017-08-29T20:20:47.011Z,99324.77
2017-08-29T20:23:13.478Z,99316.25
2017-08-29T20:25:39.917Z,99319.42
2017-08-29T20:28:06.370Z,99323.41
2017-08-29T20:30:32.793Z,99323.55
2017-08-29T20:32:59.220Z,99322.92
2017-08-29T20:35:26.474Z,99321.75
2017-08-29T20:37:52.909Z,99317.56
2017-08-29T20:40:19.343Z,99321.16
2017-08-29T20:42:45.778Z,99325.36
2017-08-29T20:45:12.213Z,99301.19
2017-08-29T20:47:38.647Z,99321.71
2017-08-29T20:50:05.136Z,99326.84
2017-08-29T20:52:31.621Z,99321.30
2017-08-29T20:54:58.057Z,99321.86
2017-08-29T20:57:24.572Z,99314.41
2017-08-29T20:59:51.029Z,99315.83
2017-08-29T21:02:17.463Z,99314.01
2017-08-29T21:04:43.904Z,99306.83
2017-08-29T21:07:10.320Z,99309.61
2017-08-29T21:09:37.487Z,99311.66
2017-08-29T21:12:03.918Z,99314.42
2017-08-29T21:14:30.356Z,99307.09
2017-08-29T21:16:56.809Z,99312.92
2017-08-29T21:19:23.305Z,99310.81
2017-08-29T21:21:49.761Z,99285.00
2017-08-29T21:24:16.251Z,99310.30
2017-08-29T21:26:43.448Z,99309.58
2017-08-29T21:29:09.884Z,99308.54
2017-08-29T21:31:36.320Z,99307.67
2017-08-29T21:34:02.737Z,99311.34
2017-08-29T21:36:29.139Z,99308.16
2017-08-29T21:38:55.622Z,99311.86
2017-08-29T21:41:22.058Z,99309.39
2017-08-29T21:43:49.264Z,99309.48
2017-08-29T21:46:15.747Z,99277.33
2017-08-29T21:48:42.182Z,99308.36
2017-08-29T21:51:08.617Z,99315.17
2017-08-29T21:53:35.720Z,99319.66
2017-08-29T21:56:02.206Z,99317.34
2017-08-29T21:58:28.639Z,99312.95
2017-08-29T22:00:55.073Z,99315.65
2017-08-29T22:03:21.513Z,99314.06
2017-08-29T22:05:47.945Z,99315.11
2017-08-29T22:08:14.378Z,99315.27
2017-08-29T22:10:40.813Z,99309.92
2017-08-29T22:13:07.248Z,99312.86
2017-08-29T22:15:33.682Z,99312.78
2017-08-29T22:18:00.120Z,99308.05
2017-08-29T22:20:26.555Z,99315.64
2017-08-29T22:22:52.987Z,99310.36
2017-08-29T22:25:20.241Z,99312.77
2017-08-29T22:27:46.678Z,99315.95
2017-08-29T22:30:13.112Z,99322.50
2017-08-29T22:32:39.551Z,99326.09
2017-08-29T22:35:05.981Z,99327.45
2017-08-29T22:37:32.417Z,99325.62
2017-08-29T22:39:58.849Z,99325.28
2017-08-29T22:42:26.004Z,99327.18
2017-08-29T22:44:52.460Z,99328.83
2017-08-29T22:47:18.962Z,99315.72
2017-08-29T22:49:45.405Z,99330.86
2017-08-29T22:52:11.846Z,99333.52
2017-08-29T22:54:38.264Z,99337.17
2017-08-29T22:57:04.719Z,99338.22
2017-08-29T22:59:31.867Z,99342.80
2017-08-29T23:01:58.302Z,99346.94
2017-08-29T23:04:24.736Z,99343.16
2017-08-29T23:06:51.127Z,99356.62
2017-08-29T23:09:17.563Z,99349.72
2017-08-29T23:11:44.042Z,99356.92
2017-08-29T23:14:10.476Z,99356.22
2017-08-29T23:16:37.627Z,99355.45
2017-08-29T23:19:04.062Z,99365.66
2017-08-29T23:21:30.496Z,99369.10
2017-08-29T23:23:56.886Z,99363.66
2017-08-29T23:26:23.366Z,99364.79
2017-08-29T23:28:49.804Z,99363.41
2017-08-29T23:31:16.238Z,99365.97
2017-08-29T23:33:43.490Z,99372.61
2017-08-29T23:36:09.926Z,99378.02
2017-08-29T23:38:36.360Z,99376.42
2017-08-29T23:41:02.796Z,99370.90
2017-08-29T23:43:29.196Z,99372.40
2017-08-29T23:45:55.666Z,99370.21
2017-08-29T23:48:22.101Z,99369.91
2017-08-29T23:50:49.353Z,99375.19
2017-08-29T23:53:15.791Z,99373.33
2017-08-29T23:55:42.224Z,99376.81
2017-08-29T23:58:08.661Z,99375.35
